createdAt,value
2022-11-16T00:03:26.723Z,24.8
2022-11-16T00:08:49.356Z,24.4
2022-11-16T00:14:10.572Z,24.8
2022-11-16T00:19:32.513Z,25.4
2022-11-16T00:25:09.131Z,26.9
2022-11-16T00:30:31.451Z,27.1
2022-11-16T00:35:53.512Z,26.1
2022-11-16T00:41:15.299Z,25.6
2022-11-16T00:46:52.055Z,25.1
2022-11-16T00:52:30.101Z,24.8
2022-11-16T00:58:06.933Z,24.6
2022-11-16T01:03:12.927Z,24.3
2022-11-16T01:08:35.913Z,24.8
2022-11-16T01:13:58.082Z,26.1
2022-11-16T01:19:35.512Z,26.9
2022-11-16T01:24:57.783Z,26.8
2022-11-16T01:30:34.967Z,25.6
2022-11-16T01:36:11.249Z,25.2
2022-11-16T01:41:49.763Z,24.7
2022-11-16T01:47:26.604Z,24.4
2022-11-16T01:52:48.742Z,24.2
2022-11-16T01:57:39.573Z,24.3
2022-11-16T02:03:02.122Z,24.9
2022-11-16T02:08:23.328Z,26.3
2022-11-16T02:13:30.153Z,26.9
2022-11-16T02:19:07.281Z,26.6
2022-11-16T02:24:44.085Z,25.4
2022-11-16T02:30:21.634Z,25
2022-11-16T02:35:58.351Z,24.5
2022-11-16T02:41:20.509Z,24.3
2022-11-16T02:46:56.725Z,24
2022-11-16T02:52:03.618Z,24.2
2022-11-16T02:57:25.233Z,25.1
2022-11-16T03:03:05.811Z,26.4
2022-11-16T03:08:42.656Z,26.8
2022-11-16T03:14:19.114Z,26.1
2022-11-16T03:19:57.530Z,25.1
2022-11-16T03:25:34.434Z,24.7
2022-11-16T03:30:57.143Z,24.3
2022-11-16T03:36:34.125Z,24.1
2022-11-16T03:42:11.292Z,23.8
2022-11-16T03:47:17.269Z,24.3
2022-11-16T03:52:39.276Z,25.6
2022-11-16T03:58:20.497Z,25.4
2022-11-16T04:03:10.734Z,25.2
2022-11-16T04:08:49.554Z,26
2022-11-16T04:14:26.420Z,26.9
2022-11-16T04:20:02.434Z,26.8
2022-11-16T04:25:24.097Z,25.4
2022-11-16T04:31:02.058Z,25
2022-11-16T04:36:39.125Z,24.4
2022-11-16T04:42:16.470Z,24.2
2022-11-16T04:47:54.129Z,23.9
2022-11-16T04:53:15.330Z,24.2
2022-11-16T04:58:22.388Z,25.4
2022-11-16T05:03:35.075Z,26.5
2022-11-16T05:08:59.518Z,26.8
2022-11-16T05:14:21.842Z,26.3
2022-11-16T05:19:43.517Z,25.1
2022-11-16T05:25:04.813Z,24.8
2022-11-16T05:30:12.114Z,24.3
2022-11-16T05:35:18.575Z,24
2022-11-16T05:40:55.719Z,23.8
2022-11-16T05:46:16.738Z,24.1
2022-11-16T05:51:54.455Z,25.4
2022-11-16T05:57:16.058Z,26.6
2022-11-16T06:02:37.607Z,26.7
2022-11-16T06:08:16.950Z,25.7
2022-11-16T06:13:53.799Z,25.1
2022-11-16T06:19:48.860Z,24.5
2022-11-16T06:25:28.470Z,24.1
2022-11-16T06:31:10.933Z,23.9
2022-11-16T06:36:39.861Z,24
2022-11-16T06:42:18.641Z,24.8
2022-11-16T06:47:56.270Z,26.3
2022-11-16T06:54:35.401Z,26.8
2022-11-16T07:00:17.087Z,25.6
2022-11-16T07:05:55.174Z,25.1
2022-11-16T07:11:37.629Z,24.4
2022-11-16T07:17:19.347Z,24.1
2022-11-16T07:22:57.246Z,23.9
2022-11-16T07:28:07.475Z,23.9
2022-11-16T07:33:48.802Z,24.6
2022-11-16T07:39:26.509Z,26.1
2022-11-16T07:45:01.832Z,26.8
2022-11-16T07:51:13.973Z,26.2
2022-11-16T07:56:51.160Z,25.1
2022-11-16T08:02:37.259Z,24.5
2022-11-16T08:08:20.194Z,24.1
2022-11-16T08:13:58.978Z,23.9
2022-11-16T08:19:22.633Z,23.8
2022-11-16T08:25:04.885Z,24.5
2022-11-16T08:30:42.250Z,26.1
2022-11-16T08:36:09.551Z,26.7
2022-11-16T08:41:51.614Z,26.4
2022-11-16T08:47:17.891Z,26.1
2022-11-16T08:54:26.242Z,25.8
2022-11-16T09:00:05.657Z,24.7
2022-11-16T09:05:43.890Z,25.1
2022-11-16T09:11:23.389Z,26.5
2022-11-16T09:18:26.359Z,26.8
2022-11-16T09:24:05.248Z,26.4
2022-11-16T09:29:43.972Z,25.9
2022-11-16T09:35:07.424Z,25.6
2022-11-16T09:42:42.471Z,24.6
2022-11-16T09:48:28.581Z,26.5
2022-11-16T09:55:35.289Z,26.9
2022-11-16T10:01:29.487Z,26.4
2022-11-16T10:07:12.984Z,25.9
2022-11-16T10:12:51.541Z,25.5
2022-11-16T10:18:30.664Z,25.1
2022-11-16T10:24:09.986Z,24.7
2022-11-16T10:29:35.721Z,24.3
2022-11-16T10:35:07.647Z,23.9
2022-11-16T10:40:47.194Z,23.7
2022-11-16T10:46:01.893Z,23.3
2022-11-16T10:51:44.916Z,23.1
2022-11-16T10:57:29.838Z,23.4
2022-11-16T11:03:16.036Z,24.5
2022-11-16T11:08:58.334Z,26.3
2022-11-16T11:14:39.032Z,26.8
2022-11-16T11:20:24.322Z,26.4
2022-11-16T11:26:38.931Z,25.9
2022-11-16T11:32:22.599Z,25.5
2022-11-16T11:38:07.603Z,24.4
2022-11-16T11:45:15.725Z,25.4
2022-11-16T11:52:06.505Z,26.8
2022-11-16T11:57:49.589Z,26.4
2022-11-16T12:03:17.562Z,26
2022-11-16T12:08:41.783Z,25.8
2022-11-16T12:14:27.506Z,25.4
2022-11-16T12:20:05.606Z,24.4
2022-11-16T12:25:51.256Z,26.2
2022-11-16T12:31:32.203Z,26.9
2022-11-16T12:37:10.655Z,26.5
2022-11-16T12:42:53.176Z,26.1
2022-11-16T12:48:35.519Z,25.8
2022-11-16T12:54:18.456Z,25.3
2022-11-16T13:00:14.681Z,24.8
2022-11-16T13:05:53.643Z,26.6
2022-11-16T13:11:37.207Z,26.9
2022-11-16T13:17:47.266Z,26.5
2022-11-16T13:23:31.856Z,26.2
2022-11-16T13:29:10.917Z,25.8
2022-11-16T13:34:56.467Z,24.9
2022-11-16T13:40:34.765Z,25.1
2022-11-16T13:46:40.745Z,26.7
2022-11-16T14:00:06.203Z,26.3
2022-11-16T14:05:48.287Z,25.9
2022-11-16T14:11:13.466Z,25.6
2022-11-16T14:16:58.967Z,24.6
2022-11-16T14:22:21.553Z,26.3
2022-11-16T14:28:04.045Z,27.1
2022-11-16T14:33:47.734Z,26.8
2022-11-16T14:39:25.655Z,26.4
2022-11-16T14:45:16.423Z,26.1
2022-11-16T14:50:40.994Z,25.8
2022-11-16T14:56:19.163Z,24.6
2022-11-16T15:01:58.277Z,26.1
2022-11-16T15:07:28.860Z,27
2022-11-16T15:13:06.672Z,26.8
2022-11-16T15:18:34.700Z,26.3
2022-11-16T15:23:56.875Z,26
2022-11-16T15:29:39.100Z,25.6
2022-11-16T15:35:22.035Z,24.6
2022-11-16T15:41:00.760Z,25.6
2022-11-16T15:47:12.675Z,26.9
2022-11-16T15:52:40.356Z,26.8
2022-11-16T15:57:48.545Z,26.3
2022-11-16T16:03:27.209Z,25.9
2022-11-16T16:08:50.489Z,25.5
2022-11-16T16:13:57.799Z,24.8
2022-11-16T16:19:26.035Z,24.9
2022-11-16T16:25:04.320Z,26.6
2022-11-16T16:30:18.066Z,26.9
2022-11-16T16:36:00.951Z,26.5
2022-11-16T16:41:08.717Z,26.1
2022-11-16T16:46:50.883Z,25.8
2022-11-16T16:52:22.670Z,25.4
2022-11-16T16:57:34.852Z,24.6
2022-11-16T17:03:03.719Z,26.2
2022-11-16T17:08:31.985Z,26.9
2022-11-16T17:13:58.954Z,26.7
2022-11-16T17:19:30.679Z,26.3
2022-11-16T17:24:57.169Z,25.9
2022-11-16T17:30:37.816Z,25.6
2022-11-16T17:35:49.692Z,24.6
2022-11-16T17:41:29.115Z,25.8
2022-11-16T17:47:11.567Z,26.8
2022-11-16T17:52:23.475Z,26.6
2022-11-16T17:58:07.287Z,26.1
2022-11-16T18:03:46.643Z,25.7
2022-11-16T18:09:33.945Z,25.3
2022-11-16T18:15:28.286Z,24.5
2022-11-16T18:21:07.750Z,25.8
2022-11-16T18:26:46.305Z,26.9
2022-11-16T18:32:24.852Z,26.6
2022-11-16T18:37:33.017Z,26.1
2022-11-16T18:42:44.747Z,25.8
2022-11-16T18:48:23.055Z,25.3
2022-11-16T18:54:06.141Z,24.8
2022-11-16T18:59:59.886Z,24.8
2022-11-16T19:05:41.703Z,26.7
2022-11-16T19:11:10.727Z,26.8
2022-11-16T19:16:54.238Z,26.5
2022-11-16T19:22:49.662Z,26.1
2022-11-16T19:28:13.355Z,25.6
2022-11-16T19:33:52.157Z,25.3
2022-11-16T19:39:17.524Z,24.6
2022-11-16T19:44:55.572Z,26.4
2022-11-16T19:50:25.554Z,26.8
2022-11-16T19:55:48.770Z,26.4
2022-11-16T20:01:28.058Z,26.1
2022-11-16T20:07:06.853Z,25.6
2022-11-16T20:12:29.736Z,25.3
2022-11-16T20:18:07.557Z,24.5
2022-11-16T20:23:46.145Z,25.3
2022-11-16T20:29:24.798Z,26.8
2022-11-16T20:35:09.247Z,26.8
2022-11-16T20:40:32.376Z,26.3
2022-11-16T20:45:56.732Z,25.9
2022-11-16T20:51:19.265Z,25.6
2022-11-16T20:57:02.466Z,24.6
2022-11-16T21:02:47.237Z,25.6
2022-11-16T21:08:26.203Z,26.9
2022-11-16T21:14:07.204Z,26.7
2022-11-16T21:20:05.649Z,26.3
2022-11-16T21:25:58.849Z,25.8
2022-11-16T21:31:28.048Z,25.4
2022-11-16T21:37:10.455Z,24.6
2022-11-16T21:42:49.215Z,25.6
2022-11-16T21:48:11.720Z,26.9
2022-11-16T21:54:08.336Z,26.8
2022-11-16T21:59:31.284Z,26.3
2022-11-16T22:05:09.864Z,25.9
2022-11-16T22:10:38.579Z,25.5
2022-11-16T22:16:16.561Z,24.8
2022-11-16T22:21:39.523Z,25.3
2022-11-16T22:27:04.300Z,26.8
2022-11-16T22:33:17.718Z,26.9
2022-11-16T22:38:56.574Z,26.4
2022-11-16T22:44:38.845Z,25.9
2022-11-16T22:50:19.257Z,25.5
2022-11-16T22:55:41.975Z,24.8
2022-11-16T23:01:04.612Z,24.9
2022-11-16T23:06:43.506Z,26.6
2022-11-16T23:12:12.577Z,26.9
2022-11-16T23:17:49.870Z,26.4
2022-11-16T23:23:31.567Z,26
2022-11-16T23:29:09.872Z,25.6
2022-11-16T23:34:55.120Z,25.2
2022-11-16T23:40:33.567Z,24.6
2022-11-16T23:45:55.969Z,26.5
2022-11-16T23:51:18.355Z,27
2022-11-16T23:56:41.580Z,26.6
